sensor_id;sensor_type;location;lat;lon;timestamp;P1;durP1;ratioP1;P2;durP2;ratioP2
61358;SDS011;47228;46.762;23.598;2023-07-31T00:01:14;10.60;;;5.90;;
61358;SDS011;47228;46.762;23.598;2023-07-31T00:13:08;10.10;;;6.00;;
61358;SDS011;47228;46.762;23.598;2023-07-31T00:21:21;9.80;;;5.60;;
61358;SDS011;47228;46.762;23.598;2023-07-31T00:25:06;11.50;;;5.40;;
61358;SDS011;47228;46.762;23.598;2023-07-31T00:28:43;8.60;;;5.80;;
61358;SDS011;47228;46.762;23.598;2023-07-31T00:35:48;9.90;;;5.60;;
61358;SDS011;47228;46.762;23.598;2023-07-31T00:43:34;10.70;;;5.20;;
61358;SDS011;47228;46.762;23.598;2023-07-31T00:47:20;8.20;;;5.00;;
61358;SDS011;47228;46.762;23.598;2023-07-31T01:15:16;7.20;;;4.30;;
61358;SDS011;47228;46.762;23.598;2023-07-31T01:32:54;7.10;;;4.90;;
61358;SDS011;47228;46.762;23.598;2023-07-31T01:36:59;8.10;;;4.40;;
61358;SDS011;47228;46.762;23.598;2023-07-31T01:45:01;6.40;;;4.00;;
61358;SDS011;47228;46.762;23.598;2023-07-31T01:49:22;6.70;;;4.20;;
61358;SDS011;47228;46.762;23.598;2023-07-31T02:32:19;13.80;;;4.20;;
61358;SDS011;47228;46.762;23.598;2023-07-31T02:44:19;7.10;;;3.80;;
61358;SDS011;47228;46.762;23.598;2023-07-31T03:38:00;5.40;;;3.70;;
61358;SDS011;47228;46.762;23.598;2023-07-31T03:46:21;8.90;;;3.90;;
61358;SDS011;47228;46.762;23.598;2023-07-31T04:22:00;7.30;;;3.60;;
61358;SDS011;47228;46.762;23.598;2023-07-31T04:26:01;9.20;;;3.90;;
61358;SDS011;47228;46.762;23.598;2023-07-31T04:30:16;7.30;;;3.20;;
61358;SDS011;47228;46.762;23.598;2023-07-31T04:34:28;6.00;;;3.30;;
61358;SDS011;47228;46.762;23.598;2023-07-31T04:38:22;9.30;;;3.70;;
61358;SDS011;47228;46.762;23.598;2023-07-31T05:03:05;5.20;;;3.20;;
61358;SDS011;47228;46.762;23.598;2023-07-31T05:10:28;9.50;;;3.20;;
61358;SDS011;47228;46.762;23.598;2023-07-31T05:22:44;6.10;;;3.40;;
61358;SDS011;47228;46.762;23.598;2023-07-31T05:26:16;4.80;;;2.90;;
61358;SDS011;47228;46.762;23.598;2023-07-31T05:29:35;6.50;;;2.90;;
61358;SDS011;47228;46.762;23.598;2023-07-31T05:33:12;6.50;;;3.40;;
61358;SDS011;47228;46.762;23.598;2023-07-31T05:37:02;7.20;;;3.00;;
61358;SDS011;47228;46.762;23.598;2023-07-31T05:40:56;6.80;;;3.20;;
61358;SDS011;47228;46.762;23.598;2023-07-31T05:44:40;6.60;;;3.10;;
61358;SDS011;47228;46.762;23.598;2023-07-31T05:56:13;7.90;;;3.00;;
61358;SDS011;47228;46.762;23.598;2023-07-31T06:07:27;7.30;;;3.60;;
61358;SDS011;47228;46.762;23.598;2023-07-31T06:11:26;6.70;;;3.40;;
61358;SDS011;47228;46.762;23.598;2023-07-31T06:16:09;9.10;;;3.20;;
61358;SDS011;47228;46.762;23.598;2023-07-31T06:20:07;5.00;;;3.20;;
61358;SDS011;47228;46.762;23.598;2023-07-31T06:23:38;5.80;;;2.90;;
61358;SDS011;47228;46.762;23.598;2023-07-31T06:27:27;6.00;;;3.50;;
61358;SDS011;47228;46.762;23.598;2023-07-31T06:35:14;7.20;;;3.10;;
61358;SDS011;47228;46.762;23.598;2023-07-31T06:45:13;4.30;;;2.90;;
61358;SDS011;47228;46.762;23.598;2023-07-31T06:52:59;7.20;;;3.10;;
61358;SDS011;47228;46.762;23.598;2023-07-31T06:56:43;5.20;;;3.30;;
61358;SDS011;47228;46.762;23.598;2023-07-31T07:30:50;4.40;;;3.30;;
61358;SDS011;47228;46.762;23.598;2023-07-31T07:38:09;8.90;;;3.50;;
61358;SDS011;47228;46.762;23.598;2023-07-31T07:41:39;6.40;;;3.10;;
61358;SDS011;47228;46.762;23.598;2023-07-31T07:48:21;8.10;;;3.10;;
61358;SDS011;47228;46.762;23.598;2023-07-31T07:51:54;4.00;;;3.00;;
61358;SDS011;47228;46.762;23.598;2023-07-31T07:55:40;5.70;;;3.60;;
61358;SDS011;47228;46.762;23.598;2023-07-31T08:06:57;4.20;;;3.00;;
61358;SDS011;47228;46.762;23.598;2023-07-31T08:10:48;4.30;;;3.10;;
61358;SDS011;47228;46.762;23.598;2023-07-31T08:14:26;4.90;;;3.20;;
61358;SDS011;47228;46.762;23.598;2023-07-31T08:18:34;6.00;;;3.10;;
61358;SDS011;47228;46.762;23.598;2023-07-31T08:38:26;4.60;;;3.30;;
61358;SDS011;47228;46.762;23.598;2023-07-31T08:46:26;5.50;;;3.30;;
61358;SDS011;47228;46.762;23.598;2023-07-31T08:50:21;7.00;;;3.50;;
61358;SDS011;47228;46.762;23.598;2023-07-31T08:53:25;4.10;;;3.00;;
61358;SDS011;47228;46.762;23.598;2023-07-31T09:07:23;5.60;;;3.50;;
61358;SDS011;47228;46.762;23.598;2023-07-31T09:35:30;3.30;;;2.70;;
61358;SDS011;47228;46.762;23.598;2023-07-31T09:48:11;3.90;;;2.60;;
61358;SDS011;47228;46.762;23.598;2023-07-31T09:51:21;4.20;;;2.50;;
61358;SDS011;47228;46.762;23.598;2023-07-31T09:59:06;3.20;;;2.90;;
61358;SDS011;47228;46.762;23.598;2023-07-31T10:03:06;3.90;;;2.70;;
61358;SDS011;47228;46.762;23.598;2023-07-31T10:06:45;5.80;;;2.60;;
61358;SDS011;47228;46.762;23.598;2023-07-31T10:11:14;4.70;;;2.60;;
61358;SDS011;47228;46.762;23.598;2023-07-31T10:15:19;4.00;;;2.60;;
61358;SDS011;47228;46.762;23.598;2023-07-31T10:36:34;2.90;;;2.40;;
61358;SDS011;47228;46.762;23.598;2023-07-31T10:40:14;4.50;;;2.70;;
61358;SDS011;47228;46.762;23.598;2023-07-31T10:55:50;6.30;;;2.90;;
61358;SDS011;47228;46.762;23.598;2023-07-31T10:59:34;4.50;;;2.80;;
61358;SDS011;47228;46.762;23.598;2023-07-31T11:15:32;3.00;;;2.20;;
61358;SDS011;47228;46.762;23.598;2023-07-31T11:34:59;4.30;;;2.40;;
61358;SDS011;47228;46.762;23.598;2023-07-31T11:43:02;3.20;;;2.40;;
61358;SDS011;47228;46.762;23.598;2023-07-31T11:51:16;3.10;;;2.30;;
61358;SDS011;47228;46.762;23.598;2023-07-31T11:59:03;3.40;;;2.20;;
61358;SDS011;47228;46.762;23.598;2023-07-31T12:03:04;5.30;;;2.50;;
61358;SDS011;47228;46.762;23.598;2023-07-31T12:06:38;9.40;;;2.50;;
61358;SDS011;47228;46.762;23.598;2023-07-31T12:14:06;5.50;;;2.10;;
61358;SDS011;47228;46.762;23.598;2023-07-31T12:21:45;4.20;;;2.50;;
61358;SDS011;47228;46.762;23.598;2023-07-31T14:31:50;4.30;;;2.80;;
61358;SDS011;47228;46.762;23.598;2023-07-31T14:34:19;5.00;;;3.10;;
61358;SDS011;47228;46.762;23.598;2023-07-31T14:36:46;5.10;;;3.40;;
61358;SDS011;47228;46.762;23.598;2023-07-31T14:39:14;4.30;;;3.20;;
61358;SDS011;47228;46.762;23.598;2023-07-31T14:41:42;5.70;;;3.50;;
61358;SDS011;47228;46.762;23.598;2023-07-31T14:44:11;6.80;;;3.50;;
61358;SDS011;47228;46.762;23.598;2023-07-31T14:46:38;4.20;;;3.00;;
61358;SDS011;47228;46.762;23.598;2023-07-31T14:49:07;3.30;;;2.80;;
61358;SDS011;47228;46.762;23.598;2023-07-31T14:51:35;5.10;;;2.90;;
61358;SDS011;47228;46.762;23.598;2023-07-31T14:54:03;3.80;;;2.80;;
61358;SDS011;47228;46.762;23.598;2023-07-31T14:56:31;4.50;;;3.10;;
61358;SDS011;47228;46.762;23.598;2023-07-31T14:58:59;6.00;;;3.20;;
61358;SDS011;47228;46.762;23.598;2023-07-31T15:01:26;5.10;;;2.90;;
61358;SDS011;47228;46.762;23.598;2023-07-31T15:03:55;5.20;;;3.00;;
61358;SDS011;47228;46.762;23.598;2023-07-31T15:06:23;5.50;;;3.10;;
61358;SDS011;47228;46.762;23.598;2023-07-31T15:08:51;4.40;;;3.00;;
61358;SDS011;47228;46.762;23.598;2023-07-31T15:11:19;6.50;;;3.20;;
61358;SDS011;47228;46.762;23.598;2023-07-31T15:13:47;5.10;;;2.90;;
61358;SDS011;47228;46.762;23.598;2023-07-31T15:16:15;4.20;;;3.20;;
61358;SDS011;47228;46.762;23.598;2023-07-31T15:18:43;5.90;;;3.10;;
61358;SDS011;47228;46.762;23.598;2023-07-31T15:21:10;4.60;;;3.10;;
61358;SDS011;47228;46.762;23.598;2023-07-31T15:23:39;4.90;;;3.10;;
61358;SDS011;47228;46.762;23.598;2023-07-31T15:26:06;5.40;;;3.30;;
61358;SDS011;47228;46.762;23.598;2023-07-31T15:28:34;5.10;;;3.20;;
61358;SDS011;47228;46.762;23.598;2023-07-31T15:31:04;5.00;;;3.10;;
61358;SDS011;47228;46.762;23.598;2023-07-31T15:33:33;3.40;;;2.70;;
61358;SDS011;47228;46.762;23.598;2023-07-31T15:36:03;4.00;;;3.10;;
61358;SDS011;47228;46.762;23.598;2023-07-31T15:38:31;4.90;;;3.20;;
61358;SDS011;47228;46.762;23.598;2023-07-31T15:40:59;4.70;;;3.00;;
61358;SDS011;47228;46.762;23.598;2023-07-31T15:43:27;5.10;;;2.80;;
61358;SDS011;47228;46.762;23.598;2023-07-31T15:45:57;5.00;;;3.00;;
61358;SDS011;47228;46.762;23.598;2023-07-31T15:48:25;4.40;;;3.20;;
61358;SDS011;47228;46.762;23.598;2023-07-31T15:50:53;5.60;;;3.30;;
61358;SDS011;47228;46.762;23.598;2023-07-31T15:53:21;5.00;;;3.20;;
61358;SDS011;47228;46.762;23.598;2023-07-31T15:55:49;4.10;;;3.00;;
61358;SDS011;47228;46.762;23.598;2023-07-31T15:58:17;4.10;;;3.00;;
61358;SDS011;47228;46.762;23.598;2023-07-31T16:00:45;5.10;;;3.20;;
61358;SDS011;47228;46.762;23.598;2023-07-31T16:03:14;5.20;;;3.20;;
61358;SDS011;47228;46.762;23.598;2023-07-31T16:05:42;4.70;;;3.00;;
61358;SDS011;47228;46.762;23.598;2023-07-31T16:08:10;6.60;;;3.20;;
61358;SDS011;47228;46.762;23.598;2023-07-31T16:10:38;4.00;;;3.00;;
61358;SDS011;47228;46.762;23.598;2023-07-31T16:13:06;5.60;;;3.40;;
61358;SDS011;47228;46.762;23.598;2023-07-31T16:15:34;4.30;;;3.00;;
61358;SDS011;47228;46.762;23.598;2023-07-31T16:18:02;5.20;;;3.10;;
61358;SDS011;47228;46.762;23.598;2023-07-31T16:20:31;4.50;;;3.20;;
61358;SDS011;47228;46.762;23.598;2023-07-31T16:22:59;6.20;;;3.40;;
61358;SDS011;47228;46.762;23.598;2023-07-31T16:25:27;5.50;;;3.20;;
61358;SDS011;47228;46.762;23.598;2023-07-31T16:27:54;4.00;;;3.00;;
61358;SDS011;47228;46.762;23.598;2023-07-31T16:30:22;4.20;;;3.20;;
61358;SDS011;47228;46.762;23.598;2023-07-31T16:32:50;6.50;;;3.30;;
61358;SDS011;47228;46.762;23.598;2023-07-31T16:35:20;5.00;;;3.30;;
61358;SDS011;47228;46.762;23.598;2023-07-31T16:37:48;6.50;;;3.60;;
61358;SDS011;47228;46.762;23.598;2023-07-31T16:40:16;4.80;;;3.10;;
61358;SDS011;47228;46.762;23.598;2023-07-31T16:42:44;4.50;;;3.30;;
61358;SDS011;47228;46.762;23.598;2023-07-31T16:45:11;4.10;;;3.30;;
61358;SDS011;47228;46.762;23.598;2023-07-31T16:47:39;5.90;;;3.10;;
61358;SDS011;47228;46.762;23.598;2023-07-31T16:50:08;5.10;;;2.90;;
61358;SDS011;47228;46.762;23.598;2023-07-31T16:52:36;6.70;;;3.30;;
61358;SDS011;47228;46.762;23.598;2023-07-31T16:55:04;4.80;;;3.00;;
61358;SDS011;47228;46.762;23.598;2023-07-31T16:57:32;4.40;;;3.40;;
61358;SDS011;47228;46.762;23.598;2023-07-31T17:00:00;4.60;;;3.00;;
61358;SDS011;47228;46.762;23.598;2023-07-31T17:02:28;4.90;;;3.10;;
61358;SDS011;47228;46.762;23.598;2023-07-31T17:04:56;4.80;;;3.40;;
61358;SDS011;47228;46.762;23.598;2023-07-31T17:07:24;4.20;;;3.00;;
61358;SDS011;47228;46.762;23.598;2023-07-31T17:09:52;5.40;;;3.20;;
61358;SDS011;47228;46.762;23.598;2023-07-31T17:12:22;4.00;;;3.20;;
61358;SDS011;47228;46.762;23.598;2023-07-31T17:14:51;5.60;;;3.20;;
61358;SDS011;47228;46.762;23.598;2023-07-31T17:17:19;4.10;;;2.90;;
61358;SDS011;47228;46.762;23.598;2023-07-31T17:19:51;4.70;;;3.10;;
61358;SDS011;47228;46.762;23.598;2023-07-31T17:22:19;4.30;;;2.90;;
61358;SDS011;47228;46.762;23.598;2023-07-31T17:27:20;5.20;;;3.00;;
61358;SDS011;47228;46.762;23.598;2023-07-31T17:29:51;6.90;;;4.10;;
61358;SDS011;47228;46.762;23.598;2023-07-31T17:32:19;8.10;;;5.30;;
61358;SDS011;47228;46.762;23.598;2023-07-31T17:34:51;6.20;;;3.50;;
61358;SDS011;47228;46.762;23.598;2023-07-31T17:37:19;7.90;;;4.80;;
61358;SDS011;47228;46.762;23.598;2023-07-31T17:39:46;10.60;;;6.40;;
61358;SDS011;47228;46.762;23.598;2023-07-31T17:42:14;5.50;;;3.80;;
61358;SDS011;47228;46.762;23.598;2023-07-31T17:44:42;10.10;;;5.00;;
61358;SDS011;47228;46.762;23.598;2023-07-31T17:47:10;5.90;;;3.40;;
61358;SDS011;47228;46.762;23.598;2023-07-31T17:49:39;8.40;;;4.50;;
61358;SDS011;47228;46.762;23.598;2023-07-31T17:52:07;5.60;;;3.60;;
61358;SDS011;47228;46.762;23.598;2023-07-31T17:54:35;7.40;;;4.40;;
61358;SDS011;47228;46.762;23.598;2023-07-31T17:57:03;8.60;;;5.00;;
61358;SDS011;47228;46.762;23.598;2023-07-31T17:59:31;9.60;;;5.50;;
61358;SDS011;47228;46.762;23.598;2023-07-31T18:01:59;6.20;;;3.40;;
61358;SDS011;47228;46.762;23.598;2023-07-31T18:04:27;6.80;;;4.30;;
61358;SDS011;47228;46.762;23.598;2023-07-31T18:06:55;8.50;;;4.10;;
61358;SDS011;47228;46.762;23.598;2023-07-31T18:09:23;7.60;;;4.20;;
61358;SDS011;47228;46.762;23.598;2023-07-31T18:11:51;6.50;;;3.70;;
61358;SDS011;47228;46.762;23.598;2023-07-31T18:14:19;5.20;;;3.70;;
61358;SDS011;47228;46.762;23.598;2023-07-31T18:16:52;5.80;;;3.60;;
61358;SDS011;47228;46.762;23.598;2023-07-31T18:19:20;7.80;;;4.00;;
61358;SDS011;47228;46.762;23.598;2023-07-31T18:21:48;6.00;;;3.90;;
61358;SDS011;47228;46.762;23.598;2023-07-31T18:24:15;8.40;;;4.20;;
61358;SDS011;47228;46.762;23.598;2023-07-31T18:26:43;7.60;;;4.10;;
61358;SDS011;47228;46.762;23.598;2023-07-31T18:29:11;5.90;;;3.80;;
61358;SDS011;47228;46.762;23.598;2023-07-31T18:31:39;6.70;;;3.70;;
61358;SDS011;47228;46.762;23.598;2023-07-31T18:34:08;7.00;;;3.60;;
61358;SDS011;47228;46.762;23.598;2023-07-31T18:36:36;7.80;;;3.70;;
61358;SDS011;47228;46.762;23.598;2023-07-31T18:39:05;5.30;;;3.80;;
61358;SDS011;47228;46.762;23.598;2023-07-31T18:41:43;6.90;;;3.60;;
61358;SDS011;47228;46.762;23.598;2023-07-31T18:44:11;7.10;;;3.70;;
61358;SDS011;47228;46.762;23.598;2023-07-31T18:46:39;6.80;;;3.90;;
61358;SDS011;47228;46.762;23.598;2023-07-31T18:49:07;7.60;;;3.90;;
61358;SDS011;47228;46.762;23.598;2023-07-31T18:51:35;6.50;;;4.50;;
61358;SDS011;47228;46.762;23.598;2023-07-31T18:54:06;5.90;;;3.80;;
61358;SDS011;47228;46.762;23.598;2023-07-31T18:56:34;9.30;;;4.00;;
61358;SDS011;47228;46.762;23.598;2023-07-31T18:59:02;6.60;;;4.30;;
61358;SDS011;47228;46.762;23.598;2023-07-31T19:01:30;8.30;;;4.00;;
61358;SDS011;47228;46.762;23.598;2023-07-31T19:03:58;8.90;;;3.80;;
61358;SDS011;47228;46.762;23.598;2023-07-31T19:06:27;8.20;;;4.40;;
61358;SDS011;47228;46.762;23.598;2023-07-31T19:08:55;8.00;;;3.90;;
61358;SDS011;47228;46.762;23.598;2023-07-31T19:11:24;8.50;;;4.20;;
61358;SDS011;47228;46.762;23.598;2023-07-31T19:13:59;7.30;;;3.90;;
61358;SDS011;47228;46.762;23.598;2023-07-31T19:16:28;9.60;;;4.00;;
61358;SDS011;47228;46.762;23.598;2023-07-31T19:18:56;8.10;;;4.00;;
61358;SDS011;47228;46.762;23.598;2023-07-31T19:21:26;5.50;;;3.70;;
61358;SDS011;47228;46.762;23.598;2023-07-31T19:23:54;6.70;;;3.60;;
61358;SDS011;47228;46.762;23.598;2023-07-31T19:26:22;13.70;;;3.90;;
61358;SDS011;47228;46.762;23.598;2023-07-31T19:28:50;7.00;;;3.70;;
61358;SDS011;47228;46.762;23.598;2023-07-31T19:31:19;6.20;;;3.80;;
61358;SDS011;47228;46.762;23.598;2023-07-31T19:33:46;6.80;;;3.90;;
61358;SDS011;47228;46.762;23.598;2023-07-31T19:36:14;5.10;;;3.80;;
61358;SDS011;47228;46.762;23.598;2023-07-31T19:38:42;5.50;;;3.90;;
61358;SDS011;47228;46.762;23.598;2023-07-31T19:41:10;6.50;;;3.90;;
61358;SDS011;47228;46.762;23.598;2023-07-31T19:43:39;6.50;;;3.50;;
61358;SDS011;47228;46.762;23.598;2023-07-31T19:46:07;5.20;;;3.60;;
61358;SDS011;47228;46.762;23.598;2023-07-31T19:48:35;7.00;;;3.90;;
61358;SDS011;47228;46.762;23.598;2023-07-31T19:51:03;6.60;;;3.70;;
61358;SDS011;47228;46.762;23.598;2023-07-31T19:53:32;5.80;;;3.90;;
61358;SDS011;47228;46.762;23.598;2023-07-31T19:56:00;5.80;;;3.70;;
61358;SDS011;47228;46.762;23.598;2023-07-31T19:58:28;6.30;;;3.90;;
61358;SDS011;47228;46.762;23.598;2023-07-31T20:00:57;5.00;;;3.40;;
61358;SDS011;47228;46.762;23.598;2023-07-31T20:03:25;6.70;;;4.40;;
61358;SDS011;47228;46.762;23.598;2023-07-31T20:05:53;7.90;;;3.40;;
61358;SDS011;47228;46.762;23.598;2023-07-31T20:08:23;8.20;;;4.20;;
61358;SDS011;47228;46.762;23.598;2023-07-31T20:10:51;8.30;;;4.50;;
61358;SDS011;47228;46.762;23.598;2023-07-31T20:13:21;7.30;;;4.20;;
61358;SDS011;47228;46.762;23.598;2023-07-31T20:15:49;5.80;;;3.60;;
61358;SDS011;47228;46.762;23.598;2023-07-31T20:18:17;6.10;;;3.70;;
61358;SDS011;47228;46.762;23.598;2023-07-31T20:20:45;9.70;;;4.20;;
61358;SDS011;47228;46.762;23.598;2023-07-31T20:23:13;7.90;;;4.00;;
61358;SDS011;47228;46.762;23.598;2023-07-31T20:25:47;5.00;;;3.60;;
61358;SDS011;47228;46.762;23.598;2023-07-31T20:28:15;8.30;;;4.30;;
61358;SDS011;47228;46.762;23.598;2023-07-31T20:30:44;9.30;;;3.70;;
61358;SDS011;47228;46.762;23.598;2023-07-31T20:33:12;7.20;;;3.90;;
61358;SDS011;47228;46.762;23.598;2023-07-31T20:35:40;5.80;;;4.00;;
61358;SDS011;47228;46.762;23.598;2023-07-31T20:38:08;5.30;;;3.60;;
61358;SDS011;47228;46.762;23.598;2023-07-31T20:40:36;8.00;;;3.70;;
61358;SDS011;47228;46.762;23.598;2023-07-31T20:43:04;8.80;;;4.20;;
61358;SDS011;47228;46.762;23.598;2023-07-31T20:45:32;9.50;;;4.20;;
61358;SDS011;47228;46.762;23.598;2023-07-31T20:48:04;10.90;;;4.00;;
61358;SDS011;47228;46.762;23.598;2023-07-31T20:50:34;9.20;;;4.00;;
61358;SDS011;47228;46.762;23.598;2023-07-31T20:53:03;9.00;;;4.10;;
61358;SDS011;47228;46.762;23.598;2023-07-31T20:55:31;7.70;;;4.10;;
61358;SDS011;47228;46.762;23.598;2023-07-31T20:58:00;7.90;;;4.10;;
61358;SDS011;47228;46.762;23.598;2023-07-31T21:00:28;7.30;;;4.00;;
61358;SDS011;47228;46.762;23.598;2023-07-31T21:02:56;8.20;;;4.40;;
61358;SDS011;47228;46.762;23.598;2023-07-31T21:05:24;8.80;;;4.00;;
61358;SDS011;47228;46.762;23.598;2023-07-31T21:07:52;7.30;;;4.00;;
61358;SDS011;47228;46.762;23.598;2023-07-31T21:10:20;9.00;;;4.20;;
61358;SDS011;47228;46.762;23.598;2023-07-31T21:12:48;7.20;;;3.90;;
61358;SDS011;47228;46.762;23.598;2023-07-31T21:15:16;5.70;;;3.90;;
61358;SDS011;47228;46.762;23.598;2023-07-31T21:17:44;11.00;;;3.80;;
61358;SDS011;47228;46.762;23.598;2023-07-31T21:20:12;8.90;;;4.20;;
61358;SDS011;47228;46.762;23.598;2023-07-31T21:22:41;7.70;;;4.00;;
61358;SDS011;47228;46.762;23.598;2023-07-31T21:25:11;7.60;;;3.80;;
61358;SDS011;47228;46.762;23.598;2023-07-31T21:27:39;7.00;;;3.80;;
61358;SDS011;47228;46.762;23.598;2023-07-31T21:30:07;9.00;;;3.90;;
61358;SDS011;47228;46.762;23.598;2023-07-31T21:32:35;6.80;;;3.80;;
61358;SDS011;47228;46.762;23.598;2023-07-31T21:35:04;6.70;;;3.70;;
61358;SDS011;47228;46.762;23.598;2023-07-31T21:37:32;8.70;;;3.70;;
61358;SDS011;47228;46.762;23.598;2023-07-31T21:40:03;6.70;;;3.60;;
61358;SDS011;47228;46.762;23.598;2023-07-31T21:42:31;10.90;;;4.20;;
61358;SDS011;47228;46.762;23.598;2023-07-31T21:44:59;7.70;;;3.80;;
61358;SDS011;47228;46.762;23.598;2023-07-31T21:47:27;7.50;;;3.70;;
61358;SDS011;47228;46.762;23.598;2023-07-31T21:49:55;6.60;;;4.00;;
61358;SDS011;47228;46.762;23.598;2023-07-31T21:52:24;5.30;;;3.80;;
61358;SDS011;47228;46.762;23.598;2023-07-31T21:54:53;8.20;;;3.50;;
61358;SDS011;47228;46.762;23.598;2023-07-31T21:57:21;5.60;;;3.80;;
61358;SDS011;47228;46.762;23.598;2023-07-31T21:59:49;8.70;;;3.80;;
61358;SDS011;47228;46.762;23.598;2023-07-31T22:02:17;10.40;;;3.80;;
61358;SDS011;47228;46.762;23.598;2023-07-31T22:04:45;7.00;;;3.60;;
61358;SDS011;47228;46.762;23.598;2023-07-31T22:07:13;5.40;;;3.70;;
61358;SDS011;47228;46.762;23.598;2023-07-31T22:09:41;6.90;;;3.90;;
61358;SDS011;47228;46.762;23.598;2023-07-31T22:12:09;4.60;;;3.50;;
61358;SDS011;47228;46.762;23.598;2023-07-31T22:14:37;6.20;;;3.60;;
61358;SDS011;47228;46.762;23.598;2023-07-31T22:17:05;5.20;;;3.50;;
61358;SDS011;47228;46.762;23.598;2023-07-31T22:19:33;5.40;;;3.50;;
61358;SDS011;47228;46.762;23.598;2023-07-31T22:22:03;5.50;;;3.50;;
61358;SDS011;47228;46.762;23.598;2023-07-31T22:24:31;6.40;;;3.40;;
61358;SDS011;47228;46.762;23.598;2023-07-31T22:27:00;7.80;;;3.90;;
61358;SDS011;47228;46.762;23.598;2023-07-31T22:29:27;8.80;;;3.40;;
61358;SDS011;47228;46.762;23.598;2023-07-31T22:31:55;6.10;;;3.60;;
61358;SDS011;47228;46.762;23.598;2023-07-31T22:34:23;7.00;;;3.70;;
61358;SDS011;47228;46.762;23.598;2023-07-31T22:36:51;6.20;;;3.40;;
61358;SDS011;47228;46.762;23.598;2023-07-31T22:39:19;6.20;;;3.70;;
61358;SDS011;47228;46.762;23.598;2023-07-31T22:41:47;5.30;;;3.90;;
61358;SDS011;47228;46.762;23.598;2023-07-31T22:44:15;9.80;;;4.20;;
61358;SDS011;47228;46.762;23.598;2023-07-31T22:46:43;7.80;;;5.20;;
61358;SDS011;47228;46.762;23.598;2023-07-31T22:49:11;13.50;;;5.10;;
61358;SDS011;47228;46.762;23.598;2023-07-31T22:51:39;8.80;;;5.40;;
61358;SDS011;47228;46.762;23.598;2023-07-31T22:54:07;9.70;;;5.00;;
61358;SDS011;47228;46.762;23.598;2023-07-31T22:56:35;6.90;;;4.60;;
61358;SDS011;47228;46.762;23.598;2023-07-31T22:59:02;7.80;;;4.80;;
61358;SDS011;47228;46.762;23.598;2023-07-31T23:01:30;6.60;;;4.20;;
61358;SDS011;47228;46.762;23.598;2023-07-31T23:03:58;7.30;;;4.70;;
61358;SDS011;47228;46.762;23.598;2023-07-31T23:06:26;11.80;;;4.60;;
61358;SDS011;47228;46.762;23.598;2023-07-31T23:08:54;9.00;;;4.10;;
61358;SDS011;47228;46.762;23.598;2023-07-31T23:11:22;7.30;;;4.00;;
61358;SDS011;47228;46.762;23.598;2023-07-31T23:13:50;8.80;;;4.00;;
61358;SDS011;47228;46.762;23.598;2023-07-31T23:16:18;8.50;;;3.90;;
61358;SDS011;47228;46.762;23.598;2023-07-31T23:18:46;7.70;;;3.90;;
61358;SDS011;47228;46.762;23.598;2023-07-31T23:21:14;8.40;;;3.90;;
61358;SDS011;47228;46.762;23.598;2023-07-31T23:23:42;7.30;;;4.10;;
61358;SDS011;47228;46.762;23.598;2023-07-31T23:26:11;6.50;;;4.30;;
61358;SDS011;47228;46.762;23.598;2023-07-31T23:28:38;7.30;;;4.20;;
61358;SDS011;47228;46.762;23.598;2023-07-31T23:31:06;5.30;;;3.90;;
61358;SDS011;47228;46.762;23.598;2023-07-31T23:33:34;6.90;;;3.80;;
61358;SDS011;47228;46.762;23.598;2023-07-31T23:36:07;8.80;;;4.20;;
61358;SDS011;47228;46.762;23.598;2023-07-31T23:38:39;9.10;;;4.40;;
61358;SDS011;47228;46.762;23.598;2023-07-31T23:41:07;9.50;;;4.00;;
61358;SDS011;47228;46.762;23.598;2023-07-31T23:43:36;9.30;;;4.00;;
61358;SDS011;47228;46.762;23.598;2023-07-31T23:46:04;7.70;;;3.90;;
61358;SDS011;47228;46.762;23.598;2023-07-31T23:48:32;5.50;;;3.80;;
61358;SDS011;47228;46.762;23.598;2023-07-31T23:51:00;8.90;;;3.60;;
61358;SDS011;47228;46.762;23.598;2023-07-31T23:53:31;8.70;;;4.10;;
61358;SDS011;47228;46.762;23.598;2023-07-31T23:55:59;10.30;;;3.50;;
61358;SDS011;47228;46.762;23.598;2023-07-31T23:58:30;5.70;;;3.80;;
